Sawyer, Washington
Current Conditions -  °F | °C
As of 3:53 AM on Friday 21 Nov 2014 (Local Time) from KYKM Reporting Station
Haze Haze  
Wind Chill: 27°   Ceiling: 6500
Heat Index: 27°   Visibility: 4mi
Dew Point: 23°   Wind: 3mph
Humidity: 85%   Direction: 260°W
Pressure: 30"   Gusts: NA
Location:  46.4639°N, 120.412°W
Report Text: KYKM 211153Z AUTO 26003KT 4SM BR OVC065 M03/M05 A3000 RMK AO2 SLP170 T10281050 11006 21056 56003
Loading
Personal Weather Stations






























Interactive Weather Map New forecast layout! Learn more

10-Day Weather Forecast

Advertisements
Track Severe Weather on mobile